Ashcott, United Kingdom
Current Conditions -  °F | °C
As of 1:50 PM on Tuesday 27 Jan 2015 (Local Time) from EGDY Reporting Station
Broken Clouds Broken Clouds  
Wind Chill: 41°   Ceiling: 2400
Heat Index: 46°   Visibility: 6mi
Dew Point: 37°   Wind: 13mph
Humidity: 71%   Direction: 300°WNW
Pressure: 30.33"   Gusts: NA
Location:  51.11°N, 2.98°W
Report Text: EGDY 271350Z 30011KT 9999 FEW010 BKN024 08/03 Q1027 WHT SCT025 BLU
Loading
Personal Weather Stations






























Interactive Weather Map New forecast layout! Learn more

10-Day Weather Forecast

Advertisements
Track Severe Weather on mobile